sensor_id;sensor_type;location;lat;lon;timestamp;P1;durP1;ratioP1;P2;durP2;ratioP2
32393;SDS011;18853;45.426;9.206;2024-01-15T00:00:37;99.28;;;62.25;;
32393;SDS011;18853;45.426;9.206;2024-01-15T00:03:05;112.20;;;66.28;;
32393;SDS011;18853;45.426;9.206;2024-01-15T00:05:31;104.93;;;63.47;;
32393;SDS011;18853;45.426;9.206;2024-01-15T00:07:56;108.18;;;66.53;;
32393;SDS011;18853;45.426;9.206;2024-01-15T00:10:22;112.95;;;68.30;;
32393;SDS011;18853;45.426;9.206;2024-01-15T00:12:48;109.55;;;64.45;;
32393;SDS011;18853;45.426;9.206;2024-01-15T00:15:14;110.30;;;65.30;;
32393;SDS011;18853;45.426;9.206;2024-01-15T00:17:40;107.57;;;65.32;;
32393;SDS011;18853;45.426;9.206;2024-01-15T00:20:05;103.60;;;63.22;;
32393;SDS011;18853;45.426;9.206;2024-01-15T00:22:32;101.28;;;61.83;;
32393;SDS011;18853;45.426;9.206;2024-01-15T00:28:19;101.63;;;61.63;;
32393;SDS011;18853;45.426;9.206;2024-01-15T00:30:57;102.85;;;62.78;;
32393;SDS011;18853;45.426;9.206;2024-01-15T00:33:41;105.30;;;63.20;;
32393;SDS011;18853;45.426;9.206;2024-01-15T00:36:06;107.35;;;63.53;;
32393;SDS011;18853;45.426;9.206;2024-01-15T00:38:32;102.65;;;61.40;;
32393;SDS011;18853;45.426;9.206;2024-01-15T00:40:58;107.18;;;63.03;;
32393;SDS011;18853;45.426;9.206;2024-01-15T00:43:23;106.35;;;62.88;;
32393;SDS011;18853;45.426;9.206;2024-01-15T00:45:49;109.13;;;64.43;;
32393;SDS011;18853;45.426;9.206;2024-01-15T00:48:14;106.20;;;65.20;;
32393;SDS011;18853;45.426;9.206;2024-01-15T00:50:40;105.95;;;61.75;;
32393;SDS011;18853;45.426;9.206;2024-01-15T00:53:05;103.88;;;62.78;;
32393;SDS011;18853;45.426;9.206;2024-01-15T00:55:31;104.57;;;62.17;;
32393;SDS011;18853;45.426;9.206;2024-01-15T00:57:56;103.97;;;63.70;;
32393;SDS011;18853;45.426;9.206;2024-01-15T01:00:22;100.18;;;61.65;;
32393;SDS011;18853;45.426;9.206;2024-01-15T01:02:48;101.75;;;63.20;;
32393;SDS011;18853;45.426;9.206;2024-01-15T01:05:13;104.15;;;62.83;;
32393;SDS011;18853;45.426;9.206;2024-01-15T01:07:39;100.78;;;63.83;;
32393;SDS011;18853;45.426;9.206;2024-01-15T01:10:04;104.40;;;63.15;;
32393;SDS011;18853;45.426;9.206;2024-01-15T01:12:30;103.38;;;64.45;;
32393;SDS011;18853;45.426;9.206;2024-01-15T01:14:56;104.20;;;65.72;;
32393;SDS011;18853;45.426;9.206;2024-01-15T01:17:21;106.05;;;64.30;;
32393;SDS011;18853;45.426;9.206;2024-01-15T01:19:47;103.32;;;62.50;;
32393;SDS011;18853;45.426;9.206;2024-01-15T01:22:14;103.72;;;63.78;;
32393;SDS011;18853;45.426;9.206;2024-01-15T01:24:40;106.15;;;62.83;;
32393;SDS011;18853;45.426;9.206;2024-01-15T01:27:05;106.57;;;63.00;;
32393;SDS011;18853;45.426;9.206;2024-01-15T01:29:31;105.47;;;60.83;;
32393;SDS011;18853;45.426;9.206;2024-01-15T01:31:56;104.93;;;62.22;;
32393;SDS011;18853;45.426;9.206;2024-01-15T01:34:22;101.35;;;63.00;;
32393;SDS011;18853;45.426;9.206;2024-01-15T01:36:47;106.10;;;63.78;;
32393;SDS011;18853;45.426;9.206;2024-01-15T01:39:13;109.50;;;63.08;;
32393;SDS011;18853;45.426;9.206;2024-01-15T01:41:38;106.57;;;62.10;;
32393;SDS011;18853;45.426;9.206;2024-01-15T01:44:05;113.85;;;66.35;;
32393;SDS011;18853;45.426;9.206;2024-01-15T01:46:30;106.40;;;64.57;;
32393;SDS011;18853;45.426;9.206;2024-01-15T01:48:56;104.88;;;62.50;;
32393;SDS011;18853;45.426;9.206;2024-01-15T01:51:23;108.03;;;62.65;;
32393;SDS011;18853;45.426;9.206;2024-01-15T01:53:50;101.47;;;62.28;;
32393;SDS011;18853;45.426;9.206;2024-01-15T01:56:16;102.53;;;61.20;;
32393;SDS011;18853;45.426;9.206;2024-01-15T01:58:42;106.97;;;64.28;;
32393;SDS011;18853;45.426;9.206;2024-01-15T02:01:09;100.90;;;61.63;;
32393;SDS011;18853;45.426;9.206;2024-01-15T02:03:36;101.78;;;61.00;;
32393;SDS011;18853;45.426;9.206;2024-01-15T02:06:01;102.43;;;62.08;;
32393;SDS011;18853;45.426;9.206;2024-01-15T02:08:28;104.25;;;61.67;;
32393;SDS011;18853;45.426;9.206;2024-01-15T02:10:54;106.90;;;65.32;;
32393;SDS011;18853;45.426;9.206;2024-01-15T02:13:19;105.88;;;62.88;;
32393;SDS011;18853;45.426;9.206;2024-01-15T02:15:45;104.43;;;61.80;;
32393;SDS011;18853;45.426;9.206;2024-01-15T02:18:11;100.35;;;62.22;;
32393;SDS011;18853;45.426;9.206;2024-01-15T02:20:36;103.70;;;63.05;;
32393;SDS011;18853;45.426;9.206;2024-01-15T02:23:08;98.55;;;61.47;;
32393;SDS011;18853;45.426;9.206;2024-01-15T02:25:35;98.07;;;63.25;;
32393;SDS011;18853;45.426;9.206;2024-01-15T02:28:02;103.13;;;62.53;;
32393;SDS011;18853;45.426;9.206;2024-01-15T02:30:28;97.75;;;62.13;;
32393;SDS011;18853;45.426;9.206;2024-01-15T02:32:54;98.97;;;61.42;;
32393;SDS011;18853;45.426;9.206;2024-01-15T02:35:20;101.70;;;63.05;;
32393;SDS011;18853;45.426;9.206;2024-01-15T02:37:46;106.15;;;64.75;;
32393;SDS011;18853;45.426;9.206;2024-01-15T02:40:11;98.10;;;62.20;;
32393;SDS011;18853;45.426;9.206;2024-01-15T02:42:37;102.28;;;64.38;;
32393;SDS011;18853;45.426;9.206;2024-01-15T02:45:03;101.25;;;62.85;;
32393;SDS011;18853;45.426;9.206;2024-01-15T02:47:28;101.85;;;62.42;;
32393;SDS011;18853;45.426;9.206;2024-01-15T02:49:54;96.40;;;61.00;;
32393;SDS011;18853;45.426;9.206;2024-01-15T02:52:20;109.10;;;61.83;;
32393;SDS011;18853;45.426;9.206;2024-01-15T02:54:45;98.85;;;60.83;;
32393;SDS011;18853;45.426;9.206;2024-01-15T02:57:11;97.22;;;62.65;;
32393;SDS011;18853;45.426;9.206;2024-01-15T02:59:36;97.38;;;61.38;;
32393;SDS011;18853;45.426;9.206;2024-01-15T03:02:02;98.60;;;62.58;;
32393;SDS011;18853;45.426;9.206;2024-01-15T03:04:27;103.03;;;61.85;;
32393;SDS011;18853;45.426;9.206;2024-01-15T03:06:53;93.95;;;60.20;;
32393;SDS011;18853;45.426;9.206;2024-01-15T03:09:20;100.40;;;63.08;;
32393;SDS011;18853;45.426;9.206;2024-01-15T03:11:45;98.45;;;61.00;;
32393;SDS011;18853;45.426;9.206;2024-01-15T03:14:11;99.22;;;62.22;;
32393;SDS011;18853;45.426;9.206;2024-01-15T03:16:37;96.25;;;61.28;;
32393;SDS011;18853;45.426;9.206;2024-01-15T03:19:02;98.82;;;62.38;;
32393;SDS011;18853;45.426;9.206;2024-01-15T03:21:28;98.10;;;60.08;;
32393;SDS011;18853;45.426;9.206;2024-01-15T03:23:53;95.80;;;60.22;;
32393;SDS011;18853;45.426;9.206;2024-01-15T03:26:19;94.28;;;59.20;;
32393;SDS011;18853;45.426;9.206;2024-01-15T03:28:44;92.32;;;57.28;;
32393;SDS011;18853;45.426;9.206;2024-01-15T03:31:10;96.30;;;62.03;;
32393;SDS011;18853;45.426;9.206;2024-01-15T03:33:35;94.57;;;58.60;;
32393;SDS011;18853;45.426;9.206;2024-01-15T03:36:01;95.72;;;60.20;;
32393;SDS011;18853;45.426;9.206;2024-01-15T03:38:28;91.97;;;57.47;;
32393;SDS011;18853;45.426;9.206;2024-01-15T03:40:53;93.68;;;58.30;;
32393;SDS011;18853;45.426;9.206;2024-01-15T03:43:19;95.68;;;59.92;;
32393;SDS011;18853;45.426;9.206;2024-01-15T03:45:45;93.55;;;59.55;;
32393;SDS011;18853;45.426;9.206;2024-01-15T03:48:10;93.05;;;60.40;;
32393;SDS011;18853;45.426;9.206;2024-01-15T03:50:36;95.72;;;59.47;;
32393;SDS011;18853;45.426;9.206;2024-01-15T03:53:02;89.60;;;57.47;;
32393;SDS011;18853;45.426;9.206;2024-01-15T03:55:27;90.75;;;57.47;;
32393;SDS011;18853;45.426;9.206;2024-01-15T03:57:53;92.75;;;58.30;;
32393;SDS011;18853;45.426;9.206;2024-01-15T04:00:19;90.68;;;58.67;;
32393;SDS011;18853;45.426;9.206;2024-01-15T04:02:44;98.03;;;59.95;;
32393;SDS011;18853;45.426;9.206;2024-01-15T04:05:10;96.65;;;59.17;;
32393;SDS011;18853;45.426;9.206;2024-01-15T04:07:35;96.82;;;60.25;;
32393;SDS011;18853;45.426;9.206;2024-01-15T04:10:01;95.78;;;60.35;;
32393;SDS011;18853;45.426;9.206;2024-01-15T04:12:27;95.72;;;58.40;;
32393;SDS011;18853;45.426;9.206;2024-01-15T04:14:53;96.15;;;58.97;;
32393;SDS011;18853;45.426;9.206;2024-01-15T04:17:19;99.22;;;61.35;;
32393;SDS011;18853;45.426;9.206;2024-01-15T04:19:44;94.20;;;59.00;;
32393;SDS011;18853;45.426;9.206;2024-01-15T04:22:10;95.22;;;58.45;;
32393;SDS011;18853;45.426;9.206;2024-01-15T04:24:35;97.25;;;59.50;;
32393;SDS011;18853;45.426;9.206;2024-01-15T04:27:01;98.90;;;59.97;;
32393;SDS011;18853;45.426;9.206;2024-01-15T04:29:26;93.40;;;57.72;;
32393;SDS011;18853;45.426;9.206;2024-01-15T04:31:52;96.88;;;60.40;;
32393;SDS011;18853;45.426;9.206;2024-01-15T04:34:18;93.32;;;58.13;;
32393;SDS011;18853;45.426;9.206;2024-01-15T04:36:44;94.85;;;58.10;;
32393;SDS011;18853;45.426;9.206;2024-01-15T04:39:09;93.75;;;59.15;;
32393;SDS011;18853;45.426;9.206;2024-01-15T04:41:36;87.00;;;55.92;;
32393;SDS011;18853;45.426;9.206;2024-01-15T04:44:02;93.57;;;59.70;;
32393;SDS011;18853;45.426;9.206;2024-01-15T04:46:27;89.13;;;57.38;;
32393;SDS011;18853;45.426;9.206;2024-01-15T04:48:53;94.40;;;58.95;;
32393;SDS011;18853;45.426;9.206;2024-01-15T04:51:18;95.20;;;59.40;;
32393;SDS011;18853;45.426;9.206;2024-01-15T04:53:44;97.05;;;59.88;;
32393;SDS011;18853;45.426;9.206;2024-01-15T04:56:10;90.35;;;59.50;;
32393;SDS011;18853;45.426;9.206;2024-01-15T04:58:35;91.65;;;58.42;;
32393;SDS011;18853;45.426;9.206;2024-01-15T05:01:01;88.95;;;57.13;;
32393;SDS011;18853;45.426;9.206;2024-01-15T05:03:26;90.05;;;57.85;;
32393;SDS011;18853;45.426;9.206;2024-01-15T05:05:52;92.18;;;58.33;;
32393;SDS011;18853;45.426;9.206;2024-01-15T05:08:17;93.30;;;59.50;;
32393;SDS011;18853;45.426;9.206;2024-01-15T05:10:43;88.93;;;57.03;;
32393;SDS011;18853;45.426;9.206;2024-01-15T05:13:08;94.45;;;59.67;;
32393;SDS011;18853;45.426;9.206;2024-01-15T05:15:34;85.00;;;55.88;;
32393;SDS011;18853;45.426;9.206;2024-01-15T05:17:59;86.70;;;55.58;;
32393;SDS011;18853;45.426;9.206;2024-01-15T05:20:25;94.55;;;59.15;;
32393;SDS011;18853;45.426;9.206;2024-01-15T05:22:50;90.55;;;57.42;;
32393;SDS011;18853;45.426;9.206;2024-01-15T05:25:16;94.32;;;58.30;;
32393;SDS011;18853;45.426;9.206;2024-01-15T05:27:41;91.72;;;58.00;;
32393;SDS011;18853;45.426;9.206;2024-01-15T05:30:07;94.00;;;59.38;;
32393;SDS011;18853;45.426;9.206;2024-01-15T05:32:33;91.82;;;59.65;;
32393;SDS011;18853;45.426;9.206;2024-01-15T05:34:59;95.60;;;60.22;;
32393;SDS011;18853;45.426;9.206;2024-01-15T05:37:24;91.95;;;57.70;;
32393;SDS011;18853;45.426;9.206;2024-01-15T05:39:50;95.47;;;59.17;;
32393;SDS011;18853;45.426;9.206;2024-01-15T05:42:15;95.22;;;58.45;;
32393;SDS011;18853;45.426;9.206;2024-01-15T05:44:41;96.55;;;61.35;;
32393;SDS011;18853;45.426;9.206;2024-01-15T05:47:07;94.32;;;58.03;;
32393;SDS011;18853;45.426;9.206;2024-01-15T05:49:33;90.38;;;57.03;;
32393;SDS011;18853;45.426;9.206;2024-01-15T05:51:58;93.15;;;59.65;;
32393;SDS011;18853;45.426;9.206;2024-01-15T05:54:24;88.53;;;56.95;;
32393;SDS011;18853;45.426;9.206;2024-01-15T05:56:49;86.57;;;56.53;;
32393;SDS011;18853;45.426;9.206;2024-01-15T05:59:15;85.15;;;57.45;;
32393;SDS011;18853;45.426;9.206;2024-01-15T06:01:40;93.13;;;58.17;;
32393;SDS011;18853;45.426;9.206;2024-01-15T06:04:06;93.32;;;58.85;;
32393;SDS011;18853;45.426;9.206;2024-01-15T06:06:32;90.50;;;57.55;;
32393;SDS011;18853;45.426;9.206;2024-01-15T06:08:57;86.15;;;56.10;;
32393;SDS011;18853;45.426;9.206;2024-01-15T06:11:30;86.25;;;55.58;;
32393;SDS011;18853;45.426;9.206;2024-01-15T06:13:56;86.05;;;56.90;;
32393;SDS011;18853;45.426;9.206;2024-01-15T06:16:21;84.22;;;55.30;;
32393;SDS011;18853;45.426;9.206;2024-01-15T06:18:49;87.20;;;55.05;;
32393;SDS011;18853;45.426;9.206;2024-01-15T06:21:14;86.45;;;57.08;;
32393;SDS011;18853;45.426;9.206;2024-01-15T06:23:41;87.07;;;57.40;;
32393;SDS011;18853;45.426;9.206;2024-01-15T06:26:06;85.60;;;56.53;;
32393;SDS011;18853;45.426;9.206;2024-01-15T06:28:32;90.60;;;57.80;;
32393;SDS011;18853;45.426;9.206;2024-01-15T06:30:57;89.20;;;59.17;;
32393;SDS011;18853;45.426;9.206;2024-01-15T06:33:23;89.50;;;56.30;;
32393;SDS011;18853;45.426;9.206;2024-01-15T06:35:49;88.28;;;56.88;;
32393;SDS011;18853;45.426;9.206;2024-01-15T06:38:15;85.45;;;54.83;;
32393;SDS011;18853;45.426;9.206;2024-01-15T06:40:41;84.45;;;56.63;;
32393;SDS011;18853;45.426;9.206;2024-01-15T06:43:10;89.82;;;55.75;;
32393;SDS011;18853;45.426;9.206;2024-01-15T06:45:36;89.43;;;56.92;;
32393;SDS011;18853;45.426;9.206;2024-01-15T06:48:02;87.03;;;56.83;;
32393;SDS011;18853;45.426;9.206;2024-01-15T06:50:28;90.50;;;56.28;;
32393;SDS011;18853;45.426;9.206;2024-01-15T06:52:54;97.78;;;56.00;;
32393;SDS011;18853;45.426;9.206;2024-01-15T06:55:22;88.38;;;54.83;;
32393;SDS011;18853;45.426;9.206;2024-01-15T06:57:47;84.30;;;55.28;;
32393;SDS011;18853;45.426;9.206;2024-01-15T07:00:13;86.38;;;54.97;;
32393;SDS011;18853;45.426;9.206;2024-01-15T07:02:39;110.10;;;57.70;;
32393;SDS011;18853;45.426;9.206;2024-01-15T07:05:05;87.88;;;56.80;;
32393;SDS011;18853;45.426;9.206;2024-01-15T07:07:31;91.18;;;55.72;;
32393;SDS011;18853;45.426;9.206;2024-01-15T07:09:56;110.18;;;56.55;;
32393;SDS011;18853;45.426;9.206;2024-01-15T07:12:22;122.15;;;58.13;;
32393;SDS011;18853;45.426;9.206;2024-01-15T07:14:48;111.55;;;58.78;;
32393;SDS011;18853;45.426;9.206;2024-01-15T07:17:14;94.18;;;57.47;;
32393;SDS011;18853;45.426;9.206;2024-01-15T07:19:39;92.25;;;57.97;;
32393;SDS011;18853;45.426;9.206;2024-01-15T07:22:05;97.63;;;59.53;;
32393;SDS011;18853;45.426;9.206;2024-01-15T07:24:31;94.43;;;58.05;;
32393;SDS011;18853;45.426;9.206;2024-01-15T07:26:59;97.75;;;60.72;;
32393;SDS011;18853;45.426;9.206;2024-01-15T07:29:24;96.55;;;59.10;;
32393;SDS011;18853;45.426;9.206;2024-01-15T07:31:53;100.03;;;58.53;;
32393;SDS011;18853;45.426;9.206;2024-01-15T07:34:41;176.88;;;67.57;;
32393;SDS011;18853;45.426;9.206;2024-01-15T07:37:16;168.63;;;67.38;;
32393;SDS011;18853;45.426;9.206;2024-01-15T07:39:51;104.00;;;61.00;;
32393;SDS011;18853;45.426;9.206;2024-01-15T07:42:17;121.47;;;64.40;;
32393;SDS011;18853;45.426;9.206;2024-01-15T07:44:42;164.15;;;68.53;;
32393;SDS011;18853;45.426;9.206;2024-01-15T07:47:08;120.22;;;62.13;;
32393;SDS011;18853;45.426;9.206;2024-01-15T07:49:34;143.18;;;66.18;;
32393;SDS011;18853;45.426;9.206;2024-01-15T07:52:00;105.78;;;61.92;;
32393;SDS011;18853;45.426;9.206;2024-01-15T07:54:25;109.10;;;62.28;;
32393;SDS011;18853;45.426;9.206;2024-01-15T07:56:58;110.70;;;64.85;;
32393;SDS011;18853;45.426;9.206;2024-01-15T07:59:25;108.13;;;62.85;;
32393;SDS011;18853;45.426;9.206;2024-01-15T08:01:51;111.15;;;64.20;;
32393;SDS011;18853;45.426;9.206;2024-01-15T08:04:17;112.38;;;65.18;;
32393;SDS011;18853;45.426;9.206;2024-01-15T08:06:43;111.85;;;64.32;;
32393;SDS011;18853;45.426;9.206;2024-01-15T08:09:09;125.10;;;66.75;;
32393;SDS011;18853;45.426;9.206;2024-01-15T08:11:34;123.50;;;67.90;;
32393;SDS011;18853;45.426;9.206;2024-01-15T08:14:00;119.93;;;65.80;;
32393;SDS011;18853;45.426;9.206;2024-01-15T08:16:26;137.18;;;67.30;;
32393;SDS011;18853;45.426;9.206;2024-01-15T08:18:53;142.43;;;67.10;;
32393;SDS011;18853;45.426;9.206;2024-01-15T08:21:18;123.85;;;67.22;;
32393;SDS011;18853;45.426;9.206;2024-01-15T08:23:44;119.38;;;65.63;;
32393;SDS011;18853;45.426;9.206;2024-01-15T08:26:10;118.32;;;67.45;;
32393;SDS011;18853;45.426;9.206;2024-01-15T08:28:36;126.57;;;70.70;;
32393;SDS011;18853;45.426;9.206;2024-01-15T08:31:01;119.13;;;67.82;;
32393;SDS011;18853;45.426;9.206;2024-01-15T08:33:27;117.95;;;66.53;;
32393;SDS011;18853;45.426;9.206;2024-01-15T08:35:53;153.60;;;71.10;;
32393;SDS011;18853;45.426;9.206;2024-01-15T08:38:19;103.30;;;62.78;;
32393;SDS011;18853;45.426;9.206;2024-01-15T08:40:45;112.80;;;65.53;;
32393;SDS011;18853;45.426;9.206;2024-01-15T08:43:11;136.88;;;66.65;;
32393;SDS011;18853;45.426;9.206;2024-01-15T08:45:36;119.68;;;68.15;;
32393;SDS011;18853;45.426;9.206;2024-01-15T08:48:02;126.20;;;66.95;;
32393;SDS011;18853;45.426;9.206;2024-01-15T08:50:29;209.18;;;75.10;;
32393;SDS011;18853;45.426;9.206;2024-01-15T08:52:56;125.82;;;70.05;;
32393;SDS011;18853;45.426;9.206;2024-01-15T08:55:22;125.13;;;67.88;;
32393;SDS011;18853;45.426;9.206;2024-01-15T08:57:48;121.65;;;70.47;;
32393;SDS011;18853;45.426;9.206;2024-01-15T09:00:14;131.98;;;72.05;;
32393;SDS011;18853;45.426;9.206;2024-01-15T09:02:40;140.63;;;72.97;;
32393;SDS011;18853;45.426;9.206;2024-01-15T09:05:06;177.75;;;73.90;;
32393;SDS011;18853;45.426;9.206;2024-01-15T09:07:32;135.18;;;69.93;;
32393;SDS011;18853;45.426;9.206;2024-01-15T09:09:58;133.25;;;72.00;;
32393;SDS011;18853;45.426;9.206;2024-01-15T09:12:24;133.35;;;71.88;;
32393;SDS011;18853;45.426;9.206;2024-01-15T09:14:52;133.73;;;72.43;;
32393;SDS011;18853;45.426;9.206;2024-01-15T09:17:19;156.35;;;75.40;;
32393;SDS011;18853;45.426;9.206;2024-01-15T09:19:45;140.13;;;73.78;;
32393;SDS011;18853;45.426;9.206;2024-01-15T09:22:12;146.32;;;73.72;;
32393;SDS011;18853;45.426;9.206;2024-01-15T09:24:39;139.25;;;72.72;;
32393;SDS011;18853;45.426;9.206;2024-01-15T09:27:06;132.85;;;73.07;;
32393;SDS011;18853;45.426;9.206;2024-01-15T09:29:31;132.50;;;73.35;;
32393;SDS011;18853;45.426;9.206;2024-01-15T09:31:57;131.32;;;72.32;;
32393;SDS011;18853;45.426;9.206;2024-01-15T09:34:23;122.78;;;68.88;;
32393;SDS011;18853;45.426;9.206;2024-01-15T09:36:48;121.47;;;69.45;;
32393;SDS011;18853;45.426;9.206;2024-01-15T09:39:14;123.70;;;70.40;;
32393;SDS011;18853;45.426;9.206;2024-01-15T09:41:40;114.82;;;66.85;;
32393;SDS011;18853;45.426;9.206;2024-01-15T09:44:06;118.20;;;69.05;;
32393;SDS011;18853;45.426;9.206;2024-01-15T09:46:37;111.80;;;65.45;;
32393;SDS011;18853;45.426;9.206;2024-01-15T09:49:04;114.70;;;66.13;;
32393;SDS011;18853;45.426;9.206;2024-01-15T09:51:31;111.65;;;67.57;;
32393;SDS011;18853;45.426;9.206;2024-01-15T09:53:57;110.15;;;66.63;;
32393;SDS011;18853;45.426;9.206;2024-01-15T09:56:23;112.22;;;67.05;;
32393;SDS011;18853;45.426;9.206;2024-01-15T09:58:49;109.03;;;67.35;;
32393;SDS011;18853;45.426;9.206;2024-01-15T10:01:17;111.32;;;68.13;;
32393;SDS011;18853;45.426;9.206;2024-01-15T10:03:44;118.53;;;70.65;;
32393;SDS011;18853;45.426;9.206;2024-01-15T10:06:10;125.03;;;73.30;;
32393;SDS011;18853;45.426;9.206;2024-01-15T10:08:40;122.47;;;72.45;;
32393;SDS011;18853;45.426;9.206;2024-01-15T10:11:06;124.20;;;73.28;;
32393;SDS011;18853;45.426;9.206;2024-01-15T10:13:31;130.15;;;74.72;;
32393;SDS011;18853;45.426;9.206;2024-01-15T10:15:58;127.10;;;71.85;;
32393;SDS011;18853;45.426;9.206;2024-01-15T10:18:28;139.48;;;77.15;;
32393;SDS011;18853;45.426;9.206;2024-01-15T10:20:53;136.18;;;77.22;;
32393;SDS011;18853;45.426;9.206;2024-01-15T10:23:19;140.05;;;76.68;;
32393;SDS011;18853;45.426;9.206;2024-01-15T10:25:44;134.90;;;74.38;;
32393;SDS011;18853;45.426;9.206;2024-01-15T10:28:10;133.27;;;73.22;;
32393;SDS011;18853;45.426;9.206;2024-01-15T10:30:36;134.85;;;77.68;;
32393;SDS011;18853;45.426;9.206;2024-01-15T10:33:02;133.20;;;74.32;;
32393;SDS011;18853;45.426;9.206;2024-01-15T10:35:29;133.02;;;75.38;;
32393;SDS011;18853;45.426;9.206;2024-01-15T10:37:56;128.57;;;70.90;;
32393;SDS011;18853;45.426;9.206;2024-01-15T10:40:21;135.43;;;74.63;;
32393;SDS011;18853;45.426;9.206;2024-01-15T10:42:47;132.63;;;71.78;;
32393;SDS011;18853;45.426;9.206;2024-01-15T10:45:13;136.27;;;73.10;;
32393;SDS011;18853;45.426;9.206;2024-01-15T10:47:40;137.13;;;72.85;;
32393;SDS011;18853;45.426;9.206;2024-01-15T10:50:06;131.52;;;72.95;;
32393;SDS011;18853;45.426;9.206;2024-01-15T10:52:33;135.55;;;74.05;;
32393;SDS011;18853;45.426;9.206;2024-01-15T10:55:00;137.65;;;75.60;;
32393;SDS011;18853;45.426;9.206;2024-01-15T10:57:28;140.40;;;74.75;;
32393;SDS011;18853;45.426;9.206;2024-01-15T10:59:54;137.00;;;74.63;;
32393;SDS011;18853;45.426;9.206;2024-01-15T11:02:20;140.55;;;76.55;;
32393;SDS011;18853;45.426;9.206;2024-01-15T11:04:46;141.68;;;76.57;;
32393;SDS011;18853;45.426;9.206;2024-01-15T11:07:12;135.63;;;73.10;;
32393;SDS011;18853;45.426;9.206;2024-01-15T11:09:39;140.20;;;77.18;;
32393;SDS011;18853;45.426;9.206;2024-01-15T11:12:09;145.75;;;76.38;;
32393;SDS011;18853;45.426;9.206;2024-01-15T11:14:38;140.80;;;77.03;;
32393;SDS011;18853;45.426;9.206;2024-01-15T11:17:04;147.95;;;79.47;;
32393;SDS011;18853;45.426;9.206;2024-01-15T11:19:37;141.68;;;76.97;;
32393;SDS011;18853;45.426;9.206;2024-01-15T11:22:08;137.23;;;74.65;;
32393;SDS011;18853;45.426;9.206;2024-01-15T11:24:35;138.90;;;74.13;;
32393;SDS011;18853;45.426;9.206;2024-01-15T11:27:02;134.27;;;74.32;;
32393;SDS011;18853;45.426;9.206;2024-01-15T11:31:57;129.05;;;73.18;;
32393;SDS011;18853;45.426;9.206;2024-01-15T11:39:44;128.40;;;67.32;;
32393;SDS011;18853;45.426;9.206;2024-01-15T11:42:11;128.73;;;71.38;;
32393;SDS011;18853;45.426;9.206;2024-01-15T11:44:38;119.90;;;67.55;;
32393;SDS011;18853;45.426;9.206;2024-01-15T11:47:07;118.80;;;63.97;;
32393;SDS011;18853;45.426;9.206;2024-01-15T11:52:19;113.13;;;62.30;;
32393;SDS011;18853;45.426;9.206;2024-01-15T11:57:25;87.60;;;53.75;;
32393;SDS011;18853;45.426;9.206;2024-01-15T12:00:02;81.35;;;49.13;;
32393;SDS011;18853;45.426;9.206;2024-01-15T12:02:29;86.03;;;50.58;;
32393;SDS011;18853;45.426;9.206;2024-01-15T12:04:55;86.43;;;49.90;;
32393;SDS011;18853;45.426;9.206;2024-01-15T12:07:21;81.95;;;50.50;;
32393;SDS011;18853;45.426;9.206;2024-01-15T12:09:47;90.10;;;52.08;;
32393;SDS011;18853;45.426;9.206;2024-01-15T12:12:13;71.63;;;42.85;;
32393;SDS011;18853;45.426;9.206;2024-01-15T12:15:17;84.13;;;45.90;;
32393;SDS011;18853;45.426;9.206;2024-01-15T12:17:42;78.55;;;45.63;;
32393;SDS011;18853;45.426;9.206;2024-01-15T12:20:08;69.53;;;44.90;;
32393;SDS011;18853;45.426;9.206;2024-01-15T12:22:34;73.68;;;45.70;;
32393;SDS011;18853;45.426;9.206;2024-01-15T12:25:00;81.97;;;49.15;;
32393;SDS011;18853;45.426;9.206;2024-01-15T12:27:26;82.38;;;49.58;;
32393;SDS011;18853;45.426;9.206;2024-01-15T12:29:55;85.28;;;51.45;;
32393;SDS011;18853;45.426;9.206;2024-01-15T12:32:20;79.80;;;49.65;;
32393;SDS011;18853;45.426;9.206;2024-01-15T12:34:48;71.43;;;45.95;;
32393;SDS011;18853;45.426;9.206;2024-01-15T12:37:14;75.53;;;47.17;;
32393;SDS011;18853;45.426;9.206;2024-01-15T12:39:42;74.82;;;46.85;;
32393;SDS011;18853;45.426;9.206;2024-01-15T12:42:09;72.10;;;44.97;;
32393;SDS011;18853;45.426;9.206;2024-01-15T12:44:35;69.93;;;43.55;;
32393;SDS011;18853;45.426;9.206;2024-01-15T12:47:03;71.43;;;43.70;;
32393;SDS011;18853;45.426;9.206;2024-01-15T12:49:29;64.00;;;42.45;;
32393;SDS011;18853;45.426;9.206;2024-01-15T12:51:56;66.47;;;41.47;;
32393;SDS011;18853;45.426;9.206;2024-01-15T12:54:22;62.20;;;39.58;;
32393;SDS011;18853;45.426;9.206;2024-01-15T12:56:51;60.63;;;39.08;;
32393;SDS011;18853;45.426;9.206;2024-01-15T12:59:17;56.88;;;37.40;;
32393;SDS011;18853;45.426;9.206;2024-01-15T13:01:43;58.55;;;37.58;;
32393;SDS011;18853;45.426;9.206;2024-01-15T13:04:10;58.47;;;37.65;;
32393;SDS011;18853;45.426;9.206;2024-01-15T13:06:36;57.70;;;37.15;;
32393;SDS011;18853;45.426;9.206;2024-01-15T13:09:04;56.47;;;36.33;;
32393;SDS011;18853;45.426;9.206;2024-01-15T13:11:31;57.33;;;37.45;;
32393;SDS011;18853;45.426;9.206;2024-01-15T13:13:57;53.15;;;35.22;;
32393;SDS011;18853;45.426;9.206;2024-01-15T13:16:22;51.67;;;33.65;;
32393;SDS011;18853;45.426;9.206;2024-01-15T13:18:48;49.47;;;32.13;;
32393;SDS011;18853;45.426;9.206;2024-01-15T13:21:14;50.97;;;34.38;;
32393;SDS011;18853;45.426;9.206;2024-01-15T13:23:40;49.58;;;34.70;;
32393;SDS011;18853;45.426;9.206;2024-01-15T13:26:06;48.08;;;31.65;;
32393;SDS011;18853;45.426;9.206;2024-01-15T13:28:32;46.50;;;31.65;;
32393;SDS011;18853;45.426;9.206;2024-01-15T13:30:59;44.42;;;30.75;;
32393;SDS011;18853;45.426;9.206;2024-01-15T13:33:25;44.65;;;31.05;;
32393;SDS011;18853;45.426;9.206;2024-01-15T13:35:50;41.45;;;28.92;;
32393;SDS011;18853;45.426;9.206;2024-01-15T13:38:16;42.50;;;28.88;;
32393;SDS011;18853;45.426;9.206;2024-01-15T13:40:42;42.08;;;27.65;;
32393;SDS011;18853;45.426;9.206;2024-01-15T13:43:10;40.88;;;27.73;;
32393;SDS011;18853;45.426;9.206;2024-01-15T13:45:36;37.67;;;26.73;;
32393;SDS011;18853;45.426;9.206;2024-01-15T13:48:03;35.20;;;25.10;;
32393;SDS011;18853;45.426;9.206;2024-01-15T13:50:33;37.80;;;26.88;;
32393;SDS011;18853;45.426;9.206;2024-01-15T13:52:59;38.20;;;26.60;;
32393;SDS011;18853;45.426;9.206;2024-01-15T13:55:25;37.13;;;26.95;;
32393;SDS011;18853;45.426;9.206;2024-01-15T13:57:51;36.40;;;25.90;;
32393;SDS011;18853;45.426;9.206;2024-01-15T14:00:16;40.28;;;27.17;;
32393;SDS011;18853;45.426;9.206;2024-01-15T14:02:44;36.60;;;25.08;;
32393;SDS011;18853;45.426;9.206;2024-01-15T14:05:11;36.50;;;25.00;;
32393;SDS011;18853;45.426;9.206;2024-01-15T14:07:38;37.40;;;26.63;;
32393;SDS011;18853;45.426;9.206;2024-01-15T14:10:04;35.75;;;25.17;;
32393;SDS011;18853;45.426;9.206;2024-01-15T14:12:30;34.88;;;24.67;;
32393;SDS011;18853;45.426;9.206;2024-01-15T14:14:56;37.30;;;25.77;;
32393;SDS011;18853;45.426;9.206;2024-01-15T14:17:22;32.28;;;24.08;;
32393;SDS011;18853;45.426;9.206;2024-01-15T14:19:47;33.67;;;24.77;;
32393;SDS011;18853;45.426;9.206;2024-01-15T14:22:13;31.52;;;23.40;;
32393;SDS011;18853;45.426;9.206;2024-01-15T14:24:38;35.15;;;24.35;;
32393;SDS011;18853;45.426;9.206;2024-01-15T14:27:04;30.55;;;22.80;;